sensor_id;sensor_type;location;lat;lon;timestamp;temperature;humidity
45409;DHT22;31162;51.076;3.784;2023-10-08T00:00:46;16.70;99.90
45409;DHT22;31162;51.076;3.784;2023-10-08T00:03:15;16.70;99.90
45409;DHT22;31162;51.076;3.784;2023-10-08T00:05:46;16.70;99.90
45409;DHT22;31162;51.076;3.784;2023-10-08T00:08:12;16.60;99.90
45409;DHT22;31162;51.076;3.784;2023-10-08T00:10:41;16.60;99.90
45409;DHT22;31162;51.076;3.784;2023-10-08T00:13:10;16.50;99.90
45409;DHT22;31162;51.076;3.784;2023-10-08T00:15:39;16.50;99.90
45409;DHT22;31162;51.076;3.784;2023-10-08T00:18:15;16.50;99.90
45409;DHT22;31162;51.076;3.784;2023-10-08T00:20:41;16.30;99.90
45409;DHT22;31162;51.076;3.784;2023-10-08T00:23:45;16.30;99.90
45409;DHT22;31162;51.076;3.784;2023-10-08T00:26:23;16.40;99.90
45409;DHT22;31162;51.076;3.784;2023-10-08T00:29:05;16.40;99.90
45409;DHT22;31162;51.076;3.784;2023-10-08T00:31:50;16.40;99.90
45409;DHT22;31162;51.076;3.784;2023-10-08T00:34:16;16.30;99.90
45409;DHT22;31162;51.076;3.784;2023-10-08T00:36:46;16.20;99.90
45409;DHT22;31162;51.076;3.784;2023-10-08T00:39:12;16.10;99.90
45409;DHT22;31162;51.076;3.784;2023-10-08T00:41:58;16.10;99.90
45409;DHT22;31162;51.076;3.784;2023-10-08T00:44:24;16.10;99.90
45409;DHT22;31162;51.076;3.784;2023-10-08T00:46:57;16.00;99.90
45409;DHT22;31162;51.076;3.784;2023-10-08T00:49:26;16.10;99.90
45409;DHT22;31162;51.076;3.784;2023-10-08T00:52:12;16.00;99.90
45409;DHT22;31162;51.076;3.784;2023-10-08T00:54:39;16.00;99.90
45409;DHT22;31162;51.076;3.784;2023-10-08T00:57:19;16.00;99.90
45409;DHT22;31162;51.076;3.784;2023-10-08T00:59:47;16.00;99.90
45409;DHT22;31162;51.076;3.784;2023-10-08T01:02:25;16.00;99.90
45409;DHT22;31162;51.076;3.784;2023-10-08T01:05:10;16.00;99.90
45409;DHT22;31162;51.076;3.784;2023-10-08T01:07:39;16.00;99.90
45409;DHT22;31162;51.076;3.784;2023-10-08T01:10:09;15.90;99.90
45409;DHT22;31162;51.076;3.784;2023-10-08T01:12:36;15.80;99.90
45409;DHT22;31162;51.076;3.784;2023-10-08T01:15:10;15.80;99.90
45409;DHT22;31162;51.076;3.784;2023-10-08T01:17:43;15.70;99.90
45409;DHT22;31162;51.076;3.784;2023-10-08T01:20:24;15.70;99.90
45409;DHT22;31162;51.076;3.784;2023-10-08T01:23:01;15.70;99.90
45409;DHT22;31162;51.076;3.784;2023-10-08T01:25:29;15.70;99.90
45409;DHT22;31162;51.076;3.784;2023-10-08T01:27:56;15.60;99.90
45409;DHT22;31162;51.076;3.784;2023-10-08T01:30:26;15.50;99.90
45409;DHT22;31162;51.076;3.784;2023-10-08T01:32:52;15.60;99.90
45409;DHT22;31162;51.076;3.784;2023-10-08T01:35:17;15.50;99.90
45409;DHT22;31162;51.076;3.784;2023-10-08T01:37:52;15.50;99.90
45409;DHT22;31162;51.076;3.784;2023-10-08T01:40:19;15.50;99.90
45409;DHT22;31162;51.076;3.784;2023-10-08T01:42:45;15.50;99.90
45409;DHT22;31162;51.076;3.784;2023-10-08T01:45:13;15.50;99.90
45409;DHT22;31162;51.076;3.784;2023-10-08T01:47:43;15.50;99.90
45409;DHT22;31162;51.076;3.784;2023-10-08T01:50:09;15.50;99.90
45409;DHT22;31162;51.076;3.784;2023-10-08T01:52:47;15.60;99.90
45409;DHT22;31162;51.076;3.784;2023-10-08T01:55:13;15.60;99.90
45409;DHT22;31162;51.076;3.784;2023-10-08T01:57:43;15.60;99.90
45409;DHT22;31162;51.076;3.784;2023-10-08T02:00:09;15.50;99.90
45409;DHT22;31162;51.076;3.784;2023-10-08T02:02:36;15.50;99.90
45409;DHT22;31162;51.076;3.784;2023-10-08T02:05:01;15.50;99.90
45409;DHT22;31162;51.076;3.784;2023-10-08T02:07:28;15.50;99.90
45409;DHT22;31162;51.076;3.784;2023-10-08T02:09:54;15.50;99.90
45409;DHT22;31162;51.076;3.784;2023-10-08T02:12:19;15.50;99.90
45409;DHT22;31162;51.076;3.784;2023-10-08T02:14:45;15.50;99.90
45409;DHT22;31162;51.076;3.784;2023-10-08T02:17:11;15.50;99.90
45409;DHT22;31162;51.076;3.784;2023-10-08T02:19:38;15.60;99.90
45409;DHT22;31162;51.076;3.784;2023-10-08T02:22:04;15.60;99.90
45409;DHT22;31162;51.076;3.784;2023-10-08T02:24:35;15.70;99.90
45409;DHT22;31162;51.076;3.784;2023-10-08T02:27:01;15.80;99.90
45409;DHT22;31162;51.076;3.784;2023-10-08T02:29:30;15.80;99.90
45409;DHT22;31162;51.076;3.784;2023-10-08T02:31:59;15.80;99.90
45409;DHT22;31162;51.076;3.784;2023-10-08T02:34:25;15.80;99.90
45409;DHT22;31162;51.076;3.784;2023-10-08T02:36:50;15.80;99.90
45409;DHT22;31162;51.076;3.784;2023-10-08T02:39:16;15.70;99.90
45409;DHT22;31162;51.076;3.784;2023-10-08T02:41:48;15.70;99.90
45409;DHT22;31162;51.076;3.784;2023-10-08T02:44:15;15.80;99.90
45409;DHT22;31162;51.076;3.784;2023-10-08T02:46:47;15.80;99.90
45409;DHT22;31162;51.076;3.784;2023-10-08T02:49:13;15.70;99.90
45409;DHT22;31162;51.076;3.784;2023-10-08T02:51:42;15.70;99.90
45409;DHT22;31162;51.076;3.784;2023-10-08T02:54:11;15.70;99.90
45409;DHT22;31162;51.076;3.784;2023-10-08T02:57:03;15.70;99.90
45409;DHT22;31162;51.076;3.784;2023-10-08T02:59:33;15.60;99.90
45409;DHT22;31162;51.076;3.784;2023-10-08T03:02:08;15.80;99.90
45409;DHT22;31162;51.076;3.784;2023-10-08T03:05:00;15.90;99.90
45409;DHT22;31162;51.076;3.784;2023-10-08T03:07:26;16.00;99.90
45409;DHT22;31162;51.076;3.784;2023-10-08T03:10:02;15.90;99.90
45409;DHT22;31162;51.076;3.784;2023-10-08T03:12:44;15.90;99.90
45409;DHT22;31162;51.076;3.784;2023-10-08T03:15:12;15.80;99.90
45409;DHT22;31162;51.076;3.784;2023-10-08T03:17:55;15.80;99.90
45409;DHT22;31162;51.076;3.784;2023-10-08T03:20:23;15.70;99.90
45409;DHT22;31162;51.076;3.784;2023-10-08T03:23:04;15.70;99.90
45409;DHT22;31162;51.076;3.784;2023-10-08T03:25:39;15.70;99.90
45409;DHT22;31162;51.076;3.784;2023-10-08T03:28:10;15.70;99.90
45409;DHT22;31162;51.076;3.784;2023-10-08T03:30:41;15.60;99.90
45409;DHT22;31162;51.076;3.784;2023-10-08T03:33:19;15.60;99.90
45409;DHT22;31162;51.076;3.784;2023-10-08T03:35:49;15.50;99.90
45409;DHT22;31162;51.076;3.784;2023-10-08T03:38:21;15.40;99.90
45409;DHT22;31162;51.076;3.784;2023-10-08T03:40:54;15.40;99.90
45409;DHT22;31162;51.076;3.784;2023-10-08T03:43:24;15.50;99.90
45409;DHT22;31162;51.076;3.784;2023-10-08T03:45:59;15.40;99.90
45409;DHT22;31162;51.076;3.784;2023-10-08T03:48:34;15.30;99.90
45409;DHT22;31162;51.076;3.784;2023-10-08T03:51:03;15.30;99.90
45409;DHT22;31162;51.076;3.784;2023-10-08T03:53:32;15.20;99.90
45409;DHT22;31162;51.076;3.784;2023-10-08T03:56:21;15.20;99.90
45409;DHT22;31162;51.076;3.784;2023-10-08T03:58:47;15.20;99.90
45409;DHT22;31162;51.076;3.784;2023-10-08T04:01:12;15.10;99.90
45409;DHT22;31162;51.076;3.784;2023-10-08T04:03:44;15.00;99.90
45409;DHT22;31162;51.076;3.784;2023-10-08T04:06:22;15.10;99.90
45409;DHT22;31162;51.076;3.784;2023-10-08T04:08:54;14.90;99.90
45409;DHT22;31162;51.076;3.784;2023-10-08T04:11:39;14.90;99.90
45409;DHT22;31162;51.076;3.784;2023-10-08T04:14:15;14.90;99.90
45409;DHT22;31162;51.076;3.784;2023-10-08T04:16:43;14.90;99.90
45409;DHT22;31162;51.076;3.784;2023-10-08T04:19:09;14.90;99.90
45409;DHT22;31162;51.076;3.784;2023-10-08T04:21:35;14.90;99.90
45409;DHT22;31162;51.076;3.784;2023-10-08T04:24:01;14.90;99.90
45409;DHT22;31162;51.076;3.784;2023-10-08T04:26:31;14.90;99.90
45409;DHT22;31162;51.076;3.784;2023-10-08T04:28:59;14.90;99.90
45409;DHT22;31162;51.076;3.784;2023-10-08T04:31:28;14.80;99.90
45409;DHT22;31162;51.076;3.784;2023-10-08T04:34:03;14.80;99.90
45409;DHT22;31162;51.076;3.784;2023-10-08T04:36:36;14.90;99.90
45409;DHT22;31162;51.076;3.784;2023-10-08T04:39:04;14.90;99.90
45409;DHT22;31162;51.076;3.784;2023-10-08T04:41:42;14.90;99.90
45409;DHT22;31162;51.076;3.784;2023-10-08T04:44:11;14.90;99.90
45409;DHT22;31162;51.076;3.784;2023-10-08T04:46:42;14.90;99.90
45409;DHT22;31162;51.076;3.784;2023-10-08T04:49:10;15.00;99.90
45409;DHT22;31162;51.076;3.784;2023-10-08T04:51:48;15.00;99.90
45409;DHT22;31162;51.076;3.784;2023-10-08T04:54:14;15.00;99.90
45409;DHT22;31162;51.076;3.784;2023-10-08T04:56:43;15.00;99.90
45409;DHT22;31162;51.076;3.784;2023-10-08T04:59:09;15.00;99.90
45409;DHT22;31162;51.076;3.784;2023-10-08T05:01:37;15.20;99.90
45409;DHT22;31162;51.076;3.784;2023-10-08T05:04:14;15.30;99.90
45409;DHT22;31162;51.076;3.784;2023-10-08T05:06:49;15.40;99.90
45409;DHT22;31162;51.076;3.784;2023-10-08T05:09:15;15.40;99.90
45409;DHT22;31162;51.076;3.784;2023-10-08T05:11:47;15.30;99.90
45409;DHT22;31162;51.076;3.784;2023-10-08T05:14:21;15.30;99.90
45409;DHT22;31162;51.076;3.784;2023-10-08T05:17:03;15.30;99.90
45409;DHT22;31162;51.076;3.784;2023-10-08T05:19:38;15.30;99.90
45409;DHT22;31162;51.076;3.784;2023-10-08T05:22:04;15.40;99.90
45409;DHT22;31162;51.076;3.784;2023-10-08T05:24:59;15.30;99.90
45409;DHT22;31162;51.076;3.784;2023-10-08T05:27:52;15.30;99.90
45409;DHT22;31162;51.076;3.784;2023-10-08T05:30:20;15.20;99.90
45409;DHT22;31162;51.076;3.784;2023-10-08T05:33:06;15.20;99.90
45409;DHT22;31162;51.076;3.784;2023-10-08T05:35:39;15.10;99.90
45409;DHT22;31162;51.076;3.784;2023-10-08T05:38:12;15.10;99.90
45409;DHT22;31162;51.076;3.784;2023-10-08T05:40:53;15.10;99.90
45409;DHT22;31162;51.076;3.784;2023-10-08T05:43:42;15.10;99.90
45409;DHT22;31162;51.076;3.784;2023-10-08T05:46:10;15.20;99.90
45409;DHT22;31162;51.076;3.784;2023-10-08T05:48:56;15.30;99.90
45409;DHT22;31162;51.076;3.784;2023-10-08T05:51:34;15.40;99.90
45409;DHT22;31162;51.076;3.784;2023-10-08T05:54:32;15.50;99.90
45409;DHT22;31162;51.076;3.784;2023-10-08T05:57:08;15.50;99.90
45409;DHT22;31162;51.076;3.784;2023-10-08T05:59:37;15.40;99.90
45409;DHT22;31162;51.076;3.784;2023-10-08T06:02:32;15.30;99.90
45409;DHT22;31162;51.076;3.784;2023-10-08T06:07:43;15.40;99.90
45409;DHT22;31162;51.076;3.784;2023-10-08T06:10:36;15.40;99.90
45409;DHT22;31162;51.076;3.784;2023-10-08T06:13:13;15.30;99.90
45409;DHT22;31162;51.076;3.784;2023-10-08T06:15:46;15.40;99.90
45409;DHT22;31162;51.076;3.784;2023-10-08T06:18:28;15.40;99.90
45409;DHT22;31162;51.076;3.784;2023-10-08T06:21:12;15.50;99.90
45409;DHT22;31162;51.076;3.784;2023-10-08T06:23:41;15.50;99.90
45409;DHT22;31162;51.076;3.784;2023-10-08T06:26:08;15.60;99.90
45409;DHT22;31162;51.076;3.784;2023-10-08T06:28:38;15.80;99.90
45409;DHT22;31162;51.076;3.784;2023-10-08T06:31:04;15.90;99.90
45409;DHT22;31162;51.076;3.784;2023-10-08T06:33:38;16.00;99.90
45409;DHT22;31162;51.076;3.784;2023-10-08T06:36:04;16.10;99.90
45409;DHT22;31162;51.076;3.784;2023-10-08T06:38:42;16.10;99.90
45409;DHT22;31162;51.076;3.784;2023-10-08T06:41:10;16.30;99.90
45409;DHT22;31162;51.076;3.784;2023-10-08T06:43:40;16.40;99.90
45409;DHT22;31162;51.076;3.784;2023-10-08T06:46:12;16.60;99.90
45409;DHT22;31162;51.076;3.784;2023-10-08T06:48:39;16.70;99.90
45409;DHT22;31162;51.076;3.784;2023-10-08T06:51:09;16.80;99.90
45409;DHT22;31162;51.076;3.784;2023-10-08T06:53:42;17.00;99.90
45409;DHT22;31162;51.076;3.784;2023-10-08T06:56:13;17.20;99.90
45409;DHT22;31162;51.076;3.784;2023-10-08T06:58:41;17.40;99.90
45409;DHT22;31162;51.076;3.784;2023-10-08T07:01:13;17.60;99.90
45409;DHT22;31162;51.076;3.784;2023-10-08T07:03:39;17.60;99.90
45409;DHT22;31162;51.076;3.784;2023-10-08T07:06:05;17.60;99.90
45409;DHT22;31162;51.076;3.784;2023-10-08T07:08:43;17.70;99.90
45409;DHT22;31162;51.076;3.784;2023-10-08T07:11:12;17.70;99.90
45409;DHT22;31162;51.076;3.784;2023-10-08T07:13:39;17.90;99.90
45409;DHT22;31162;51.076;3.784;2023-10-08T07:16:07;18.00;99.90
45409;DHT22;31162;51.076;3.784;2023-10-08T07:18:39;18.00;99.90
45409;DHT22;31162;51.076;3.784;2023-10-08T07:21:07;18.10;99.90
45409;DHT22;31162;51.076;3.784;2023-10-08T07:23:39;18.10;99.90
45409;DHT22;31162;51.076;3.784;2023-10-08T07:26:26;18.20;99.90
45409;DHT22;31162;51.076;3.784;2023-10-08T07:29:02;18.40;99.90
45409;DHT22;31162;51.076;3.784;2023-10-08T07:31:34;18.80;99.90
45409;DHT22;31162;51.076;3.784;2023-10-08T07:34:00;19.50;99.90
45409;DHT22;31162;51.076;3.784;2023-10-08T07:36:41;20.00;99.90
45409;DHT22;31162;51.076;3.784;2023-10-08T07:39:07;19.80;99.90
45409;DHT22;31162;51.076;3.784;2023-10-08T07:41:45;19.70;99.90
45409;DHT22;31162;51.076;3.784;2023-10-08T07:44:12;19.70;99.90
45409;DHT22;31162;51.076;3.784;2023-10-08T07:46:38;19.60;99.90
45409;DHT22;31162;51.076;3.784;2023-10-08T07:49:03;19.70;99.90
45409;DHT22;31162;51.076;3.784;2023-10-08T07:51:30;19.80;99.90
45409;DHT22;31162;51.076;3.784;2023-10-08T07:53:56;19.80;99.90
45409;DHT22;31162;51.076;3.784;2023-10-08T07:56:22;19.90;99.90
45409;DHT22;31162;51.076;3.784;2023-10-08T07:58:49;20.00;99.90
45409;DHT22;31162;51.076;3.784;2023-10-08T08:01:15;20.50;99.90
45409;DHT22;31162;51.076;3.784;2023-10-08T08:03:41;21.90;99.90
45409;DHT22;31162;51.076;3.784;2023-10-08T08:06:11;23.40;99.90
45409;DHT22;31162;51.076;3.784;2023-10-08T08:08:38;24.30;99.90
45409;DHT22;31162;51.076;3.784;2023-10-08T08:11:05;25.10;99.90
45409;DHT22;31162;51.076;3.784;2023-10-08T08:13:35;26.00;99.90
45409;DHT22;31162;51.076;3.784;2023-10-08T08:16:01;26.20;99.90
45409;DHT22;31162;51.076;3.784;2023-10-08T08:18:45;26.70;99.90
45409;DHT22;31162;51.076;3.784;2023-10-08T08:21:11;27.20;99.90
45409;DHT22;31162;51.076;3.784;2023-10-08T08:23:45;27.10;99.90
45409;DHT22;31162;51.076;3.784;2023-10-08T08:26:23;26.90;99.90
45409;DHT22;31162;51.076;3.784;2023-10-08T08:28:56;27.50;99.90
45409;DHT22;31162;51.076;3.784;2023-10-08T08:31:23;28.20;99.90
45409;DHT22;31162;51.076;3.784;2023-10-08T08:33:51;28.80;99.90
45409;DHT22;31162;51.076;3.784;2023-10-08T08:36:25;29.40;99.90
45409;DHT22;31162;51.076;3.784;2023-10-08T08:38:51;29.80;99.90
45409;DHT22;31162;51.076;3.784;2023-10-08T08:41:17;30.00;99.90
45409;DHT22;31162;51.076;3.784;2023-10-08T08:43:53;29.70;99.90
45409;DHT22;31162;51.076;3.784;2023-10-08T08:46:31;29.40;99.90
45409;DHT22;31162;51.076;3.784;2023-10-08T08:49:00;28.90;99.90
45409;DHT22;31162;51.076;3.784;2023-10-08T08:51:28;28.60;99.90
45409;DHT22;31162;51.076;3.784;2023-10-08T08:53:55;28.60;99.90
45409;DHT22;31162;51.076;3.784;2023-10-08T08:56:21;28.40;99.90
45409;DHT22;31162;51.076;3.784;2023-10-08T08:58:49;28.30;99.90
45409;DHT22;31162;51.076;3.784;2023-10-08T09:01:16;28.40;99.90
45409;DHT22;31162;51.076;3.784;2023-10-08T09:03:43;28.20;99.90
45409;DHT22;31162;51.076;3.784;2023-10-08T09:06:09;27.80;99.90
45409;DHT22;31162;51.076;3.784;2023-10-08T09:08:35;27.70;99.90
45409;DHT22;31162;51.076;3.784;2023-10-08T09:11:02;27.50;99.90
45409;DHT22;31162;51.076;3.784;2023-10-08T09:13:31;27.80;99.90
45409;DHT22;31162;51.076;3.784;2023-10-08T09:16:08;28.50;99.90
45409;DHT22;31162;51.076;3.784;2023-10-08T09:18:35;29.30;99.90
45409;DHT22;31162;51.076;3.784;2023-10-08T09:21:08;30.40;99.90
45409;DHT22;31162;51.076;3.784;2023-10-08T09:23:40;31.40;99.90
45409;DHT22;31162;51.076;3.784;2023-10-08T09:26:09;32.20;99.90
45409;DHT22;31162;51.076;3.784;2023-10-08T09:28:35;33.00;99.20
45409;DHT22;31162;51.076;3.784;2023-10-08T09:31:04;33.40;98.50
45409;DHT22;31162;51.076;3.784;2023-10-08T09:33:32;33.90;98.00
45409;DHT22;31162;51.076;3.784;2023-10-08T09:35:59;34.10;97.50
45409;DHT22;31162;51.076;3.784;2023-10-08T09:38:30;34.10;97.00
45409;DHT22;31162;51.076;3.784;2023-10-08T09:40:57;34.30;96.70
45409;DHT22;31162;51.076;3.784;2023-10-08T09:43:23;34.20;96.50
45409;DHT22;31162;51.076;3.784;2023-10-08T09:45:59;34.40;96.30
45409;DHT22;31162;51.076;3.784;2023-10-08T09:48:26;33.70;96.20
45409;DHT22;31162;51.076;3.784;2023-10-08T09:50:57;33.50;96.60
45409;DHT22;31162;51.076;3.784;2023-10-08T09:53:32;33.00;97.10
45409;DHT22;31162;51.076;3.784;2023-10-08T09:56:07;33.30;97.00
45409;DHT22;31162;51.076;3.784;2023-10-08T09:58:36;33.60;96.80
45409;DHT22;31162;51.076;3.784;2023-10-08T10:01:02;33.60;96.70
45409;DHT22;31162;51.076;3.784;2023-10-08T10:03:29;33.60;97.00
45409;DHT22;31162;51.076;3.784;2023-10-08T10:05:56;33.70;96.80
45409;DHT22;31162;51.076;3.784;2023-10-08T10:08:25;34.00;96.00
45409;DHT22;31162;51.076;3.784;2023-10-08T10:11:00;34.00;96.40
45409;DHT22;31162;51.076;3.784;2023-10-08T10:13:33;33.70;96.20
45409;DHT22;31162;51.076;3.784;2023-10-08T10:15:59;33.60;96.10
45409;DHT22;31162;51.076;3.784;2023-10-08T10:23:42;33.30;96.10
45409;DHT22;31162;51.076;3.784;2023-10-08T10:26:35;32.90;96.50
45409;DHT22;31162;51.076;3.784;2023-10-08T10:31:49;31.90;96.80
45409;DHT22;31162;51.076;3.784;2023-10-08T10:34:28;32.00;97.00
45409;DHT22;31162;51.076;3.784;2023-10-08T10:36:58;32.10;97.30
45409;DHT22;31162;51.076;3.784;2023-10-08T10:39:26;32.30;97.30
45409;DHT22;31162;51.076;3.784;2023-10-08T10:41:53;32.40;97.10
45409;DHT22;31162;51.076;3.784;2023-10-08T10:44:46;32.20;97.00
45409;DHT22;31162;51.076;3.784;2023-10-08T10:47:15;32.50;97.10
45409;DHT22;31162;51.076;3.784;2023-10-08T10:49:42;32.60;96.70
45409;DHT22;31162;51.076;3.784;2023-10-08T10:52:27;32.70;96.70
45409;DHT22;31162;51.076;3.784;2023-10-08T10:55:17;32.10;97.50
45409;DHT22;31162;51.076;3.784;2023-10-08T10:57:54;32.30;97.10
45409;DHT22;31162;51.076;3.784;2023-10-08T11:00:31;32.20;96.70
45409;DHT22;31162;51.076;3.784;2023-10-08T11:02:58;32.30;96.80
45409;DHT22;31162;51.076;3.784;2023-10-08T11:05:32;32.40;97.00
45409;DHT22;31162;51.076;3.784;2023-10-08T11:07:59;32.10;97.30
45409;DHT22;31162;51.076;3.784;2023-10-08T11:10:42;32.30;97.40
45409;DHT22;31162;51.076;3.784;2023-10-08T11:13:23;32.50;96.80
45409;DHT22;31162;51.076;3.784;2023-10-08T11:15:54;32.60;96.80
45409;DHT22;31162;51.076;3.784;2023-10-08T11:18:22;32.50;96.50
45409;DHT22;31162;51.076;3.784;2023-10-08T11:20:50;32.60;96.20
45409;DHT22;31162;51.076;3.784;2023-10-08T11:23:45;32.70;96.70
45409;DHT22;31162;51.076;3.784;2023-10-08T11:26:37;33.10;96.00
45409;DHT22;31162;51.076;3.784;2023-10-08T11:29:20;32.80;95.90
45409;DHT22;31162;51.076;3.784;2023-10-08T11:31:51;32.70;95.70
45409;DHT22;31162;51.076;3.784;2023-10-08T11:34:17;32.70;95.80
45409;DHT22;31162;51.076;3.784;2023-10-08T11:36:52;32.70;96.20
45409;DHT22;31162;51.076;3.784;2023-10-08T11:39:18;32.80;95.40
45409;DHT22;31162;51.076;3.784;2023-10-08T11:42:01;32.50;95.50
45409;DHT22;31162;51.076;3.784;2023-10-08T11:44:32;32.40;95.70
45409;DHT22;31162;51.076;3.784;2023-10-08T11:47:02;32.30;95.80
45409;DHT22;31162;51.076;3.784;2023-10-08T11:49:38;32.00;96.00
45409;DHT22;31162;51.076;3.784;2023-10-08T11:52:12;31.80;95.70
45409;DHT22;31162;51.076;3.784;2023-10-08T11:54:41;31.60;96.00
45409;DHT22;31162;51.076;3.784;2023-10-08T11:57:07;31.60;96.30
45409;DHT22;31162;51.076;3.784;2023-10-08T11:59:35;31.50;96.00
45409;DHT22;31162;51.076;3.784;2023-10-08T12:02:08;31.10;96.00
45409;DHT22;31162;51.076;3.784;2023-10-08T12:04:33;30.60;96.80
45409;DHT22;31162;51.076;3.784;2023-10-08T12:07:01;30.10;97.40
45409;DHT22;31162;51.076;3.784;2023-10-08T12:09:33;29.40;97.10
45409;DHT22;31162;51.076;3.784;2023-10-08T12:12:04;28.80;98.20
45409;DHT22;31162;51.076;3.784;2023-10-08T12:14:35;28.30;99.00
45409;DHT22;31162;51.076;3.784;2023-10-08T12:17:01;28.10;99.00
45409;DHT22;31162;51.076;3.784;2023-10-08T12:19:36;27.90;99.30
45409;DHT22;31162;51.076;3.784;2023-10-08T12:22:02;27.70;99.90
45409;DHT22;31162;51.076;3.784;2023-10-08T12:24:28;27.60;99.50
45409;DHT22;31162;51.076;3.784;2023-10-08T12:26:54;27.60;99.80
45409;DHT22;31162;51.076;3.784;2023-10-08T12:29:20;27.70;99.90
45409;DHT22;31162;51.076;3.784;2023-10-08T12:31:50;27.90;99.90
45409;DHT22;31162;51.076;3.784;2023-10-08T12:34:18;28.20;99.80
45409;DHT22;31162;51.076;3.784;2023-10-08T12:36:44;28.60;99.40
45409;DHT22;31162;51.076;3.784;2023-10-08T12:39:11;28.80;98.90
45409;DHT22;31162;51.076;3.784;2023-10-08T12:41:41;28.70;98.50
45409;DHT22;31162;51.076;3.784;2023-10-08T12:44:09;28.70;98.30
45409;DHT22;31162;51.076;3.784;2023-10-08T12:46:35;28.50;99.20
45409;DHT22;31162;51.076;3.784;2023-10-08T12:49:02;28.40;98.20
45409;DHT22;31162;51.076;3.784;2023-10-08T12:51:28;28.00;98.80
45409;DHT22;31162;51.076;3.784;2023-10-08T12:53:58;27.80;99.40
45409;DHT22;31162;51.076;3.784;2023-10-08T12:56:29;27.70;99.40
45409;DHT22;31162;51.076;3.784;2023-10-08T12:59:01;27.70;99.50
45409;DHT22;31162;51.076;3.784;2023-10-08T13:01:31;27.70;99.90
45409;DHT22;31162;51.076;3.784;2023-10-08T13:03:57;27.70;99.80
45409;DHT22;31162;51.076;3.784;2023-10-08T13:06:27;27.60;99.90
45409;DHT22;31162;51.076;3.784;2023-10-08T13:08:59;27.40;99.90
45409;DHT22;31162;51.076;3.784;2023-10-08T13:11:27;27.10;99.90
45409;DHT22;31162;51.076;3.784;2023-10-08T13:13:56;26.70;99.90
45409;DHT22;31162;51.076;3.784;2023-10-08T13:16:25;26.60;99.90
45409;DHT22;31162;51.076;3.784;2023-10-08T13:18:51;26.50;99.90
45409;DHT22;31162;51.076;3.784;2023-10-08T13:21:18;26.50;99.90
45409;DHT22;31162;51.076;3.784;2023-10-08T13:23:53;26.40;99.90
45409;DHT22;31162;51.076;3.784;2023-10-08T13:26:22;26.30;99.90
45409;DHT22;31162;51.076;3.784;2023-10-08T13:28:50;26.30;99.90
45409;DHT22;31162;51.076;3.784;2023-10-08T13:31:16;26.20;99.90
45409;DHT22;31162;51.076;3.784;2023-10-08T13:33:43;26.10;99.90
45409;DHT22;31162;51.076;3.784;2023-10-08T13:36:10;26.10;99.90
45409;DHT22;31162;51.076;3.784;2023-10-08T13:38:37;26.10;99.90
45409;DHT22;31162;51.076;3.784;2023-10-08T13:41:04;26.10;99.90
45409;DHT22;31162;51.076;3.784;2023-10-08T13:43:41;26.10;99.90
45409;DHT22;31162;51.076;3.784;2023-10-08T13:46:07;26.10;99.90
45409;DHT22;31162;51.076;3.784;2023-10-08T13:48:41;26.10;99.90
45409;DHT22;31162;51.076;3.784;2023-10-08T13:51:08;25.90;99.90
45409;DHT22;31162;51.076;3.784;2023-10-08T13:53:42;26.00;99.90
45409;DHT22;31162;51.076;3.784;2023-10-08T13:56:12;25.90;99.90
45409;DHT22;31162;51.076;3.784;2023-10-08T13:58:39;25.90;99.90
45409;DHT22;31162;51.076;3.784;2023-10-08T14:01:12;25.90;99.90
45409;DHT22;31162;51.076;3.784;2023-10-08T14:03:48;25.80;99.90
45409;DHT22;31162;51.076;3.784;2023-10-08T14:06:17;25.80;99.90
45409;DHT22;31162;51.076;3.784;2023-10-08T14:08:43;25.90;99.90
45409;DHT22;31162;51.076;3.784;2023-10-08T14:11:20;25.80;99.90
45409;DHT22;31162;51.076;3.784;2023-10-08T14:13:49;25.80;99.90
45409;DHT22;31162;51.076;3.784;2023-10-08T14:16:16;25.80;99.90
45409;DHT22;31162;51.076;3.784;2023-10-08T14:18:44;25.70;99.90
45409;DHT22;31162;51.076;3.784;2023-10-08T14:21:16;25.80;99.90
45409;DHT22;31162;51.076;3.784;2023-10-08T14:23:43;25.80;99.90
45409;DHT22;31162;51.076;3.784;2023-10-08T14:26:10;25.70;99.90
45409;DHT22;31162;51.076;3.784;2023-10-08T14:28:36;25.60;99.90
45409;DHT22;31162;51.076;3.784;2023-10-08T14:31:24;25.70;99.90
45409;DHT22;31162;51.076;3.784;2023-10-08T14:33:52;25.60;99.90
45409;DHT22;31162;51.076;3.784;2023-10-08T14:36:25;25.60;99.90
45409;DHT22;31162;51.076;3.784;2023-10-08T14:39:09;25.60;99.90
45409;DHT22;31162;51.076;3.784;2023-10-08T14:42:13;25.60;99.90
45409;DHT22;31162;51.076;3.784;2023-10-08T14:44:58;25.60;99.90
45409;DHT22;31162;51.076;3.784;2023-10-08T14:47:23;25.60;99.90
45409;DHT22;31162;51.076;3.784;2023-10-08T14:49:49;25.50;99.90
45409;DHT22;31162;51.076;3.784;2023-10-08T14:52:15;25.50;99.90
45409;DHT22;31162;51.076;3.784;2023-10-08T14:54:42;25.50;99.90
45409;DHT22;31162;51.076;3.784;2023-10-08T14:57:08;25.40;99.90
45409;DHT22;31162;51.076;3.784;2023-10-08T14:59:35;25.40;99.90
45409;DHT22;31162;51.076;3.784;2023-10-08T15:02:01;25.30;99.90
45409;DHT22;31162;51.076;3.784;2023-10-08T15:04:27;25.20;99.90
45409;DHT22;31162;51.076;3.784;2023-10-08T15:06:54;25.10;99.90
45409;DHT22;31162;51.076;3.784;2023-10-08T15:09:20;25.00;99.90
45409;DHT22;31162;51.076;3.784;2023-10-08T15:11:52;25.00;99.90
45409;DHT22;31162;51.076;3.784;2023-10-08T15:14:19;25.00;99.90
45409;DHT22;31162;51.076;3.784;2023-10-08T15:16:46;25.10;99.90
45409;DHT22;31162;51.076;3.784;2023-10-08T15:19:20;25.00;99.90
45409;DHT22;31162;51.076;3.784;2023-10-08T15:21:51;25.00;99.90
45409;DHT22;31162;51.076;3.784;2023-10-08T15:24:21;25.00;99.90
45409;DHT22;31162;51.076;3.784;2023-10-08T15:26:51;24.90;99.90
45409;DHT22;31162;51.076;3.784;2023-10-08T15:29:22;25.00;99.90
45409;DHT22;31162;51.076;3.784;2023-10-08T15:31:54;25.10;99.90
45409;DHT22;31162;51.076;3.784;2023-10-08T15:34:23;25.10;99.90
45409;DHT22;31162;51.076;3.784;2023-10-08T15:36:55;25.00;99.90
45409;DHT22;31162;51.076;3.784;2023-10-08T15:39:20;25.10;99.90
45409;DHT22;31162;51.076;3.784;2023-10-08T15:41:50;25.10;99.90
45409;DHT22;31162;51.076;3.784;2023-10-08T15:44:19;25.10;99.90
45409;DHT22;31162;51.076;3.784;2023-10-08T15:46:48;25.00;99.90
45409;DHT22;31162;51.076;3.784;2023-10-08T15:49:14;25.00;99.90
45409;DHT22;31162;51.076;3.784;2023-10-08T15:51:40;24.90;99.90
45409;DHT22;31162;51.076;3.784;2023-10-08T15:54:06;24.90;99.90
45409;DHT22;31162;51.076;3.784;2023-10-08T15:56:32;24.90;99.90
45409;DHT22;31162;51.076;3.784;2023-10-08T15:58:58;24.80;99.90
45409;DHT22;31162;51.076;3.784;2023-10-08T16:01:24;24.80;99.90
45409;DHT22;31162;51.076;3.784;2023-10-08T16:03:53;24.80;99.90
45409;DHT22;31162;51.076;3.784;2023-10-08T16:06:19;24.70;99.90